createdAt,value
2022-09-23T00:00:05.788Z,9.96
2022-09-23T00:02:39.120Z,9.95
2022-09-23T00:05:16.117Z,9.93
2022-09-23T00:07:52.813Z,9.92
2022-09-23T00:10:31.162Z,9.88
2022-09-23T00:13:04.043Z,9.86
2022-09-23T00:15:40.407Z,9.84
2022-09-23T00:18:13.210Z,9.82
2022-09-23T00:20:46.088Z,9.79
2022-09-23T00:23:20.306Z,9.78
2022-09-23T00:25:57.953Z,9.79
2022-09-23T00:28:31.522Z,9.76
2022-09-23T00:31:05.589Z,9.73
2022-09-23T00:33:38.869Z,9.73
2022-09-23T00:36:17.340Z,9.72
2022-09-23T00:38:51.624Z,9.70
2022-09-23T00:41:25.384Z,9.66
2022-09-23T00:44:00.491Z,9.66
2022-09-23T00:46:38.927Z,9.66
2022-09-23T00:49:21.798Z,9.63
2022-09-23T00:51:59.758Z,9.61
2022-09-23T00:54:34.446Z,9.60
2022-09-23T00:57:07.658Z,9.59
2022-09-23T00:59:40.507Z,9.55
2022-09-23T01:02:15.372Z,9.56
2022-09-23T01:04:50.360Z,9.53
2022-09-23T01:07:23.198Z,9.52
2022-09-23T01:09:58.707Z,9.52
2022-09-23T01:12:46.183Z,9.52
2022-09-23T01:15:23.073Z,9.50
2022-09-23T01:18:10.887Z,9.49
2022-09-23T01:20:59.423Z,9.50
2022-09-23T01:24:14.726Z,9.49
2022-09-23T01:27:02.062Z,9.48
2022-09-23T01:30:07.536Z,9.49
2022-09-23T01:32:57.301Z,9.49
2022-09-23T01:35:40.341Z,9.48
2022-09-23T01:38:22.953Z,9.47
2022-09-23T01:41:07.069Z,9.47
2022-09-23T01:43:48.880Z,9.46
2022-09-23T01:46:28.041Z,9.44
2022-09-23T01:49:09.826Z,9.44
2022-09-23T01:51:47.188Z,9.42
2022-09-23T01:54:24.539Z,9.38
2022-09-23T01:57:01.926Z,9.36
2022-09-23T01:59:38.057Z,9.36
2022-09-23T02:02:16.245Z,9.34
2022-09-23T02:04:54.684Z,9.30
2022-09-23T02:07:32.833Z,9.29
2022-09-23T02:10:13.120Z,9.27
2022-09-23T02:12:49.918Z,9.25
2022-09-23T02:15:26.374Z,9.23
2022-09-23T02:18:05.334Z,9.21
2022-09-23T02:20:41.190Z,9.17
2022-09-23T02:23:20.792Z,9.16
2022-09-23T02:26:03.859Z,9.15
2022-09-23T02:28:48.099Z,9.12
2022-09-23T02:31:33.872Z,9.10
2022-09-23T02:34:22.124Z,9.10
2022-09-23T02:37:09.935Z,9.08
2022-09-23T02:39:54.000Z,9.08
2022-09-23T02:42:34.809Z,9.07
2022-09-23T02:45:08.129Z,9.05
2022-09-23T02:47:45.259Z,9.05
2022-09-23T02:50:19.353Z,9.03
2022-09-23T02:52:55.773Z,9.03
2022-09-23T02:55:32.434Z,9.01
2022-09-23T02:58:06.636Z,8.98
2022-09-23T03:00:51.213Z,8.98
2022-09-23T03:03:41.090Z,8.95
2022-09-23T03:06:33.134Z,8.95
2022-09-23T03:09:11.035Z,8.92
2022-09-23T03:11:53.446Z,8.93
2022-09-23T03:14:37.729Z,8.93
2022-09-23T03:17:20.096Z,8.88
2022-09-23T03:19:58.632Z,8.87
2022-09-23T03:22:37.357Z,8.84
2022-09-23T03:25:18.407Z,8.85
2022-09-23T03:27:52.605Z,8.81
2022-09-23T03:30:27.781Z,8.80
2022-09-23T03:33:03.303Z,8.77
2022-09-23T03:35:57.956Z,8.78
2022-09-23T03:38:36.596Z,8.78
2022-09-23T03:41:16.742Z,8.76
2022-09-23T03:43:57.691Z,8.75
2022-09-23T03:46:36.313Z,8.73
2022-09-23T03:49:15.894Z,8.75
2022-09-23T03:51:49.316Z,8.74
2022-09-23T03:54:22.494Z,8.73
2022-09-23T03:56:57.701Z,8.73
2022-09-23T03:59:31.617Z,8.70
2022-09-23T04:02:04.596Z,8.68
2022-09-23T04:04:38.980Z,8.67
2022-09-23T04:07:13.023Z,8.66
2022-09-23T04:09:46.152Z,8.66
2022-09-23T04:12:20.417Z,8.66
2022-09-23T04:14:53.505Z,8.63
2022-09-23T04:17:26.292Z,8.64
2022-09-23T04:19:59.156Z,8.64
2022-09-23T04:22:32.509Z,8.62
2022-09-23T04:25:06.067Z,8.63
2022-09-23T04:27:40.221Z,8.61
2022-09-23T04:30:16.126Z,8.60
2022-09-23T04:32:48.960Z,8.59
2022-09-23T04:35:22.293Z,8.55
2022-09-23T04:37:55.367Z,8.55
2022-09-23T04:40:28.416Z,8.54
2022-09-23T04:43:02.680Z,8.54
2022-09-23T04:45:35.754Z,8.54
2022-09-23T04:48:10.427Z,8.51
2022-09-23T04:50:43.247Z,8.52
2022-09-23T04:53:17.291Z,8.50
2022-09-23T04:55:52.384Z,8.50
2022-09-23T04:58:26.673Z,8.48
2022-09-23T05:01:04.351Z,8.48
2022-09-23T05:03:38.025Z,8.47
2022-09-23T05:06:13.816Z,8.47
2022-09-23T05:08:49.010Z,8.45
2022-09-23T05:11:22.514Z,8.44
2022-09-23T05:13:56.864Z,8.46
2022-09-23T05:16:30.268Z,8.45
2022-09-23T05:19:04.050Z,8.46
2022-09-23T05:21:38.957Z,8.45
2022-09-23T05:24:13.312Z,8.46
2022-09-23T05:26:46.325Z,8.46
2022-09-23T05:29:20.740Z,8.47
2022-09-23T05:31:56.321Z,8.47
2022-09-23T05:34:29.478Z,8.48
2022-09-23T05:37:03.819Z,8.50
2022-09-23T05:39:37.344Z,8.53
2022-09-23T05:42:12.499Z,8.58
2022-09-23T05:44:47.212Z,8.59
2022-09-23T05:47:20.007Z,8.62
2022-09-23T05:49:59.991Z,8.66
2022-09-23T05:52:34.862Z,8.69
2022-09-23T05:55:08.973Z,8.73
2022-09-23T05:57:41.960Z,8.77
2022-09-23T06:00:17.555Z,8.82
2022-09-23T06:02:50.450Z,8.86
2022-09-23T06:05:23.311Z,8.93
2022-09-23T06:07:56.823Z,8.99
2022-09-23T06:10:29.848Z,9.06
2022-09-23T06:13:03.134Z,9.12
2022-09-23T06:15:38.218Z,9.23
2022-09-23T06:18:11.588Z,9.31
2022-09-23T06:20:45.761Z,9.43
2022-09-23T06:23:18.905Z,9.52
2022-09-23T06:25:52.586Z,9.65
2022-09-23T06:28:25.507Z,9.75
2022-09-23T06:31:00.356Z,9.91
2022-09-23T06:33:36.961Z,10.03
2022-09-23T06:36:11.433Z,10.18
2022-09-23T06:38:45.302Z,10.36
2022-09-23T06:41:20.632Z,10.50
2022-09-23T06:43:53.498Z,10.70
2022-09-23T06:46:28.088Z,10.91
2022-09-23T06:49:01.161Z,11.08
2022-09-23T06:51:34.466Z,11.28
2022-09-23T06:54:07.817Z,11.47
2022-09-23T06:56:41.389Z,11.67
2022-09-23T06:59:18.689Z,11.90
2022-09-23T07:01:53.160Z,12.14
2022-09-23T07:04:29.381Z,12.37
2022-09-23T07:07:03.758Z,12.62
2022-09-23T07:09:39.704Z,12.87
2022-09-23T07:12:13.206Z,13.11
2022-09-23T07:14:46.105Z,13.36
2022-09-23T07:17:20.770Z,13.61
2022-09-23T07:19:55.023Z,13.80
2022-09-23T07:22:28.689Z,13.98
2022-09-23T07:25:01.655Z,14.17
2022-09-23T07:27:34.520Z,14.32
2022-09-23T07:30:18.654Z,14.47
2022-09-23T07:32:55.725Z,14.60
2022-09-23T07:35:28.683Z,14.74
2022-09-23T07:38:01.806Z,14.86
2022-09-23T07:40:34.915Z,14.99
2022-09-23T07:43:08.264Z,15.11
2022-09-23T07:45:43.768Z,15.20
2022-09-23T07:48:21.257Z,15.32
2022-09-23T07:50:54.089Z,15.43
2022-09-23T07:53:29.777Z,15.56
2022-09-23T07:56:04.630Z,15.69
2022-09-23T07:58:37.460Z,15.82
2022-09-23T08:01:12.164Z,15.95
2022-09-23T08:03:46.700Z,16.14
2022-09-23T08:06:19.570Z,16.30
2022-09-23T08:08:53.445Z,16.47
2022-09-23T08:11:27.737Z,16.65
2022-09-23T08:14:00.553Z,16.82
2022-09-23T08:16:33.370Z,16.99
2022-09-23T08:19:07.896Z,17.17
2022-09-23T08:21:41.883Z,17.33
2022-09-23T08:24:16.499Z,17.49
2022-09-23T08:26:50.088Z,17.62
2022-09-23T08:29:24.935Z,17.77
2022-09-23T08:31:58.204Z,17.90
2022-09-23T08:34:32.395Z,18.02
2022-09-23T08:37:05.374Z,18.12
2022-09-23T08:39:38.189Z,18.19
2022-09-23T08:42:18.616Z,18.27
2022-09-23T08:44:55.424Z,18.34
2022-09-23T08:47:44.462Z,18.40
2022-09-23T08:50:22.168Z,18.47
2022-09-23T08:52:58.840Z,18.50
2022-09-23T08:55:37.089Z,18.54
2022-09-23T08:58:35.262Z,18.58
2022-09-23T09:01:16.919Z,18.63
2022-09-23T09:03:53.796Z,18.64
2022-09-23T09:06:45.641Z,18.68
2022-09-23T09:09:29.169Z,18.72
2022-09-23T09:12:08.331Z,18.79
2022-09-23T09:14:49.144Z,18.85
2022-09-23T09:17:35.188Z,18.92
2022-09-23T09:20:23.286Z,19.01
2022-09-23T09:23:00.581Z,19.07
2022-09-23T09:25:45.098Z,19.17
2022-09-23T09:28:22.071Z,19.26
2022-09-23T09:30:58.553Z,19.37
2022-09-23T09:33:40.303Z,19.46
2022-09-23T09:36:24.897Z,19.52
2022-09-23T09:38:59.866Z,19.63
2022-09-23T09:41:32.711Z,19.69
2022-09-23T09:44:18.337Z,19.73
2022-09-23T09:46:56.808Z,19.75
2022-09-23T09:49:40.191Z,19.79
2022-09-23T09:52:23.609Z,19.84
2022-09-23T09:55:18.912Z,19.90
2022-09-23T09:57:56.139Z,19.96
2022-09-23T10:00:43.951Z,20.07
2022-09-23T10:03:38.537Z,20.15
2022-09-23T10:06:17.369Z,20.26
2022-09-23T10:09:10.428Z,20.39
2022-09-23T10:12:03.694Z,20.50
2022-09-23T10:14:36.502Z,20.63
2022-09-23T10:17:16.582Z,20.78
2022-09-23T10:19:52.484Z,20.88
2022-09-23T10:22:30.022Z,21.02
2022-09-23T10:25:07.957Z,21.15
2022-09-23T10:27:42.450Z,21.29
2022-09-23T10:30:22.858Z,21.42
2022-09-23T10:32:57.000Z,21.51
2022-09-23T10:35:34.547Z,21.59
2022-09-23T10:38:11.364Z,21.67
2022-09-23T10:41:02.837Z,21.70
2022-09-23T10:44:12.922Z,21.77
2022-09-23T10:46:54.412Z,21.82
2022-09-23T10:49:44.912Z,21.85
2022-09-23T10:52:51.141Z,21.89
2022-09-23T10:55:41.045Z,21.90
2022-09-23T10:58:32.609Z,21.90
2022-09-23T11:01:15.461Z,21.90
2022-09-23T11:04:14.564Z,21.95
2022-09-23T11:07:01.821Z,22.02
2022-09-23T11:09:44.306Z,22.11
2022-09-23T11:15:12.670Z,22.36
2022-09-23T11:18:23.704Z,22.49
2022-09-23T11:21:10.205Z,22.62
2022-09-23T11:24:15.844Z,22.75
2022-09-23T11:26:54.692Z,22.82
2022-09-23T11:29:56.423Z,22.89
2022-09-23T11:33:21.047Z,22.91
2022-09-23T11:35:59.082Z,22.89
2022-09-23T11:38:39.948Z,22.85
2022-09-23T11:41:20.760Z,22.78
2022-09-23T11:43:59.542Z,22.75
2022-09-23T11:46:37.326Z,22.68
2022-09-23T11:49:17.829Z,22.63
2022-09-23T11:52:03.647Z,22.59
2022-09-23T11:54:50.723Z,22.56
2022-09-23T11:57:34.384Z,22.51
2022-09-23T12:00:19.329Z,22.48
2022-09-23T12:03:06.280Z,22.43
2022-09-23T12:05:45.919Z,22.40
2022-09-23T12:08:28.632Z,22.37
2022-09-23T12:11:09.606Z,22.33
2022-09-23T12:13:52.117Z,22.31
2022-09-23T12:16:38.992Z,22.30
2022-09-23T12:19:26.976Z,22.28
2022-09-23T12:22:15.295Z,22.28
2022-09-23T12:24:56.286Z,22.28
2022-09-23T12:27:45.683Z,22.31
2022-09-23T12:30:21.994Z,22.29
2022-09-23T12:33:08.988Z,22.31
2022-09-23T12:35:45.037Z,22.28
2022-09-23T12:38:22.412Z,22.30
2022-09-23T12:40:56.996Z,22.26
2022-09-23T12:43:33.533Z,22.28
2022-09-23T12:46:20.329Z,22.27
2022-09-23T12:49:02.008Z,22.27
2022-09-23T12:51:35.584Z,22.24
2022-09-23T12:54:24.536Z,22.31
2022-09-23T12:57:06.099Z,22.32
2022-09-23T12:59:57.579Z,22.31
2022-09-23T13:02:36.254Z,22.30
2022-09-23T13:05:39.083Z,22.32
2022-09-23T13:08:17.034Z,22.31
2022-09-23T13:10:54.334Z,22.32
2022-09-23T13:13:32.441Z,22.33
2022-09-23T13:16:15.938Z,22.34
2022-09-23T13:18:54.208Z,22.35
2022-09-23T13:22:00.697Z,22.37
2022-09-23T13:24:40.761Z,22.39
2022-09-23T13:27:23.663Z,22.40
2022-09-23T13:30:03.785Z,22.42
2022-09-23T13:32:45.964Z,22.41
2022-09-23T13:35:27.379Z,22.44
2022-09-23T13:38:00.350Z,22.44
2022-09-23T13:40:35.357Z,22.48
2022-09-23T13:43:16.217Z,22.49
2022-09-23T13:45:49.150Z,22.49
2022-09-23T13:48:26.896Z,22.51
2022-09-23T13:51:11.611Z,22.56
2022-09-23T13:53:52.350Z,22.56
2022-09-23T13:56:27.881Z,22.61
2022-09-23T13:59:24.244Z,22.68
2022-09-23T14:02:11.736Z,22.73
2022-09-23T14:04:48.780Z,22.78
2022-09-23T14:07:21.627Z,22.80
2022-09-23T14:09:57.274Z,22.86
2022-09-23T14:12:30.574Z,22.88
2022-09-23T14:15:03.481Z,22.92
2022-09-23T14:17:39.316Z,22.94
2022-09-23T14:20:17.378Z,22.97
2022-09-23T14:23:07.105Z,22.98
2022-09-23T14:25:48.088Z,22.99
2022-09-23T14:28:26.523Z,22.98
2022-09-23T14:31:03.757Z,23.00
2022-09-23T14:33:41.803Z,22.98
2022-09-23T14:36:36.246Z,22.98
2022-09-23T14:39:13.362Z,22.97
2022-09-23T14:41:47.098Z,22.95
2022-09-23T14:44:23.622Z,22.95
2022-09-23T14:47:00.737Z,22.95
2022-09-23T14:49:33.694Z,22.93
2022-09-23T14:52:08.457Z,22.90
2022-09-23T14:54:45.433Z,22.89
2022-09-23T14:57:29.483Z,22.89
2022-09-23T15:00:09.979Z,22.84
2022-09-23T15:02:45.416Z,22.81
2022-09-23T15:05:23.347Z,22.79
2022-09-23T15:08:02.868Z,22.77
2022-09-23T15:10:39.342Z,22.74
2022-09-23T15:13:17.092Z,22.70
2022-09-23T15:15:53.853Z,22.68
2022-09-23T15:18:30.360Z,22.65
2022-09-23T15:21:09.957Z,22.63
2022-09-23T15:23:49.285Z,22.64
2022-09-23T15:26:24.001Z,22.62
2022-09-23T15:28:58.429Z,22.61
2022-09-23T15:31:31.533Z,22.61
2022-09-23T15:34:05.624Z,22.63
2022-09-23T15:36:38.711Z,22.64
2022-09-23T15:39:13.854Z,22.67
2022-09-23T15:41:46.733Z,22.67
2022-09-23T15:44:21.726Z,22.69
2022-09-23T15:46:55.918Z,22.68
2022-09-23T15:49:32.858Z,22.67
2022-09-23T15:52:08.443Z,22.66
2022-09-23T15:54:43.360Z,22.67
2022-09-23T15:57:16.154Z,22.63
2022-09-23T15:59:48.925Z,22.61
2022-09-23T16:02:24.988Z,22.59
2022-09-23T16:04:57.868Z,22.53
2022-09-23T16:07:30.685Z,22.50
2022-09-23T16:10:05.064Z,22.45
2022-09-23T16:12:38.206Z,22.39
2022-09-23T16:15:14.391Z,22.34
2022-09-23T16:17:47.277Z,22.28
2022-09-23T16:20:20.111Z,22.22
2022-09-23T16:22:55.400Z,22.17
2022-09-23T16:25:31.941Z,22.12
2022-09-23T16:28:05.731Z,22.05
2022-09-23T16:30:38.514Z,22.00
2022-09-23T16:33:11.352Z,21.95
2022-09-23T16:35:44.236Z,21.88
2022-09-23T16:38:17.204Z,21.83
2022-09-23T16:40:51.558Z,21.76
2022-09-23T16:43:24.378Z,21.70
2022-09-23T16:45:57.746Z,21.63
2022-09-23T16:48:30.703Z,21.58
2022-09-23T16:51:04.815Z,21.50
2022-09-23T16:53:39.356Z,21.42
2022-09-23T16:56:13.588Z,21.36
2022-09-23T16:58:46.853Z,21.27
2022-09-23T17:01:39.685Z,21.20
2022-09-23T17:04:13.519Z,21.09
2022-09-23T17:06:50.370Z,20.98
2022-09-23T17:09:25.688Z,20.89
2022-09-23T17:12:10.592Z,20.80
2022-09-23T17:14:43.788Z,20.67
2022-09-23T17:17:16.598Z,20.56
2022-09-23T17:19:49.580Z,20.47
2022-09-23T17:22:22.408Z,20.37
2022-09-23T17:24:55.674Z,20.27
2022-09-23T17:27:30.954Z,20.17
2022-09-23T17:30:03.873Z,20.07
2022-09-23T17:32:36.650Z,19.97
2022-09-23T17:35:10.571Z,19.86
2022-09-23T17:37:43.407Z,19.78
2022-09-23T17:40:16.432Z,19.70
2022-09-23T17:42:51.718Z,19.62
2022-09-23T17:45:24.677Z,19.54
2022-09-23T17:47:57.597Z,19.46
2022-09-23T17:50:31.279Z,19.42
2022-09-23T17:53:05.115Z,19.37
2022-09-23T17:55:37.957Z,19.33
2022-09-23T17:58:12.246Z,19.31
2022-09-23T18:00:47.046Z,19.27
2022-09-23T18:03:19.896Z,19.25
2022-09-23T18:05:53.244Z,19.21
2022-09-23T18:08:26.067Z,19.19
2022-09-23T18:10:58.926Z,19.18
2022-09-23T18:13:33.089Z,19.18
2022-09-23T18:16:06.193Z,19.16
2022-09-23T18:18:39.252Z,19.17
2022-09-23T18:21:12.349Z,19.15
2022-09-23T18:23:45.218Z,19.15
2022-09-23T18:26:19.560Z,19.14
2022-09-23T18:28:57.225Z,19.14
2022-09-23T18:31:34.411Z,19.11
2022-09-23T18:34:09.384Z,19.11
2022-09-23T18:36:42.457Z,19.07
2022-09-23T18:39:17.143Z,19.04
2022-09-23T18:41:50.765Z,19.01
2022-09-23T18:44:24.981Z,18.99
2022-09-23T18:46:57.790Z,18.97
2022-09-23T18:49:48.334Z,18.95
2022-09-23T18:52:21.979Z,18.95
2022-09-23T18:54:55.131Z,18.94
2022-09-23T18:57:27.997Z,18.94
2022-09-23T19:00:02.312Z,18.94
2022-09-23T19:02:35.239Z,18.93
2022-09-23T19:05:08.992Z,18.90
2022-09-23T19:07:42.270Z,18.86
2022-09-23T19:10:15.179Z,18.83
2022-09-23T19:12:47.992Z,18.79
2022-09-23T19:15:22.199Z,18.75
2022-09-23T19:17:55.144Z,18.72
2022-09-23T19:20:29.178Z,18.66
2022-09-23T19:23:02.350Z,18.65
2022-09-23T19:25:37.045Z,18.63
2022-09-23T19:28:10.416Z,18.60
2022-09-23T19:30:44.760Z,18.60
2022-09-23T19:33:17.728Z,18.57
2022-09-23T19:35:52.052Z,18.56
2022-09-23T19:38:25.422Z,18.54
2022-09-23T19:40:58.292Z,18.52
2022-09-23T19:43:31.152Z,18.49
2022-09-23T19:46:06.804Z,18.47
2022-09-23T19:48:40.344Z,18.44
2022-09-23T19:51:13.117Z,18.41
2022-09-23T19:53:46.655Z,18.39
2022-09-23T19:56:21.667Z,18.37
2022-09-23T19:58:55.775Z,18.35
2022-09-23T20:01:32.100Z,18.36
2022-09-23T20:04:05.699Z,18.35
2022-09-23T20:06:39.442Z,18.31
2022-09-23T20:09:12.311Z,18.28
2022-09-23T20:11:45.090Z,18.24
2022-09-23T20:14:19.844Z,18.21
2022-09-23T20:16:54.928Z,18.18
2022-09-23T20:19:27.770Z,18.12
2022-09-23T20:22:17.965Z,18.08
2022-09-23T20:24:50.874Z,18.04
2022-09-23T20:27:23.078Z,17.98
2022-09-23T20:29:57.412Z,17.94
2022-09-23T20:32:31.797Z,17.90
2022-09-23T20:35:05.901Z,17.85
2022-09-23T20:37:38.770Z,17.82
2022-09-23T20:40:11.975Z,17.78
2022-09-23T20:42:44.804Z,17.76
2022-09-23T20:45:17.774Z,17.73
2022-09-23T20:47:52.025Z,17.70
2022-09-23T20:50:25.178Z,17.68
2022-09-23T20:52:58.003Z,17.66
2022-09-23T20:55:32.051Z,17.66
2022-09-23T20:58:05.063Z,17.66
2022-09-23T21:00:37.993Z,17.67
2022-09-23T21:03:12.514Z,17.68
2022-09-23T21:05:45.649Z,17.70
2022-09-23T21:08:18.446Z,17.72
2022-09-23T21:10:55.238Z,17.75
2022-09-23T21:13:28.007Z,17.78
2022-09-23T21:16:03.903Z,17.80
2022-09-23T21:18:38.694Z,17.82
2022-09-23T21:21:14.191Z,17.82
2022-09-23T21:23:48.194Z,17.83
2022-09-23T21:26:23.374Z,17.84
2022-09-23T21:28:58.905Z,17.82
2022-09-23T21:31:33.861Z,17.80
2022-09-23T21:34:10.824Z,17.80
2022-09-23T21:36:44.299Z,17.76
2022-09-23T21:39:17.232Z,17.73
2022-09-23T21:41:51.323Z,17.72
2022-09-23T21:44:24.203Z,17.73
2022-09-23T21:46:57.561Z,17.72
2022-09-23T21:49:32.264Z,17.72
2022-09-23T21:52:05.175Z,17.70
2022-09-23T21:54:38.515Z,17.67
2022-09-23T21:57:11.492Z,17.67
2022-09-23T21:59:44.672Z,17.67
2022-09-23T22:02:17.543Z,17.67
2022-09-23T22:04:51.733Z,17.69
2022-09-23T22:07:24.991Z,17.69
2022-09-23T22:09:57.805Z,17.71
2022-09-23T22:12:30.819Z,17.73
2022-09-23T22:15:03.632Z,17.75
2022-09-23T22:17:36.519Z,17.75
2022-09-23T22:20:11.337Z,17.76
2022-09-23T22:22:44.120Z,17.74
2022-09-23T22:25:17.173Z,17.71
2022-09-23T22:28:04.252Z,17.68
2022-09-23T22:30:57.396Z,17.64
2022-09-23T22:33:30.329Z,17.62
2022-09-23T22:36:04.998Z,17.59
2022-09-23T22:38:38.166Z,17.58
2022-09-23T22:41:15.188Z,17.59
2022-09-23T22:43:48.157Z,17.55
2022-09-23T22:46:21.935Z,17.55
2022-09-23T22:48:55.214Z,17.53
2022-09-23T22:51:29.499Z,17.54
2022-09-23T22:54:02.548Z,17.50
2022-09-23T22:56:35.410Z,17.49
2022-09-23T22:59:11.215Z,17.47
2022-09-23T23:01:44.087Z,17.44
2022-09-23T23:04:17.142Z,17.44
2022-09-23T23:06:51.486Z,17.45
2022-09-23T23:09:24.575Z,17.44
2022-09-23T23:11:57.375Z,17.46
2022-09-23T23:14:31.413Z,17.47
2022-09-23T23:17:07.298Z,17.50
2022-09-23T23:19:40.543Z,17.50
2022-09-23T23:22:14.677Z,17.52
2022-09-23T23:24:47.479Z,17.54
2022-09-23T23:27:21.709Z,17.54
2022-09-23T23:29:54.537Z,17.56
2022-09-23T23:32:28.392Z,17.56
2022-09-23T23:35:01.232Z,17.55
2022-09-23T23:37:35.343Z,17.56
2022-09-23T23:40:09.465Z,17.53
2022-09-23T23:42:42.386Z,17.55
2022-09-23T23:45:16.927Z,17.51
2022-09-23T23:47:49.798Z,17.49
2022-09-23T23:50:23.075Z,17.48
2022-09-23T23:52:57.219Z,17.45
2022-09-23T23:55:30.147Z,17.42
2022-09-23T23:58:03.205Z,17.39
